YQQ weather

Comox Airport
Comox, British Columbia, Canada

Public forecast

Using degrees Celsius for public forecast. Weather courtesy of forecast.io.

METAR (pilot weather report)

Retrieved 2019/05/27 06:00 UTC (40 minutes ago):

CYQQ 270600Z 19004KT 20SM FEW100 17/11 A2987 RMK AC1 SLP116

TAF (pilot weather forecast)

Retrieved 2019/05/27 06:28 UTC (12 minutes ago):

TAF CYQQ 270526Z 2706/2806 VRB03KT P6SM FEW120 FEW220 FM271200 VRB03KT P6SM SKC RMK NXT FCST BY 271200Z